Terminal Aerodrome Forecast
Issued by NWS Binghamton, NY

Home | Current Version | Previous Version | Text Only | Print | Product List | Glossary On
Versions: 1 2 3 4 5 6 7 8 9 10 11 12 13 14 15 16 17 18 19 20 21 22 23 24 25 26 27
000
FTUS41 KBGM 291129
TAFAVP
TAF
KAVP 291129Z 2912/3012 35011KT P6SM BKN025
     FM291400 34011G17KT P6SM SCT035
     FM291900 34013G20KT P6SM FEW150
     FM300000 35007KT P6SM FEW200=

USA.gov is the U.S. government's official web portal to all federal, state and local government web resources and services.